Search for airport 
image banner adimage banner adimage banner ad
image banner ad

2CL6 - St John's Rgnl Medical Center

Located in Oxnard, United States

ICAO - 2CL6, IATA -

Data provided by Airmate  

General information

Coordinates: N34°12'60" W119°9'26"
Elevation is 76 feet MSL.
Magnetic variation is 14° East
View others Airports in California

Operational data

Special qualification required
Current time UTC:
Current local time:
Weather at : KOXR - Oxnard ( 5 km )
METAR: KOXR 210151Z 29005KT 7SM CLR 20/16 A2991 RMK AO2 SLP126 T02000161
TAF: KOXR 202334Z 2100/2124 25008KT P6SM SKC FM210300 VRB03KT P6SM SKC FM210900 VRB03KT 1SM BR BKN004 FM211600 12008KT 5SM HZ SKC FM212000 24009KT P6SM SKC
View NOTAMs / SUP AIP / TFR affecting this airport [VIEW]
Communications frequencies: [VIEW]

Runways:

Airport contact information

Address: Oxnard United States

Satellite view of 2CL6